METAR Data
IDs: Format: Raw Decoded Include TAF

Data at: 0026 UTC 01 Nov 2020

PAGK 312353Z AUTO 00000KT 10SM CLR M17/M19 A2978 RMK AO2 SLP148 T11671194 11156 21217 53001 TSNO